sensor_id;sensor_type;location;lat;lon;timestamp;temperature;humidity
49465;DHT22;35358;49.342;8.802;2022-11-20T00:01:20;3.60;99.90
49465;DHT22;35358;49.342;8.802;2022-11-20T00:03:46;3.70;99.90
49465;DHT22;35358;49.342;8.802;2022-11-20T00:06:16;3.70;99.90
49465;DHT22;35358;49.342;8.802;2022-11-20T00:08:42;3.60;99.90
49465;DHT22;35358;49.342;8.802;2022-11-20T00:11:14;3.60;99.90
49465;DHT22;35358;49.342;8.802;2022-11-20T00:13:45;3.70;99.90
49465;DHT22;35358;49.342;8.802;2022-11-20T00:16:16;3.60;99.90
49465;DHT22;35358;49.342;8.802;2022-11-20T00:18:42;3.50;99.90
49465;DHT22;35358;49.342;8.802;2022-11-20T00:21:13;3.70;99.90
49465;DHT22;35358;49.342;8.802;2022-11-20T00:23:39;3.70;99.90
49465;DHT22;35358;49.342;8.802;2022-11-20T00:26:09;3.60;99.90
49465;DHT22;35358;49.342;8.802;2022-11-20T00:28:35;3.60;99.90
49465;DHT22;35358;49.342;8.802;2022-11-20T00:31:21;3.60;99.90
49465;DHT22;35358;49.342;8.802;2022-11-20T00:33:49;3.70;99.90
49465;DHT22;35358;49.342;8.802;2022-11-20T00:36:20;3.80;99.90
49465;DHT22;35358;49.342;8.802;2022-11-20T00:38:46;3.60;99.90
49465;DHT22;35358;49.342;8.802;2022-11-20T00:41:15;3.50;99.90
49465;DHT22;35358;49.342;8.802;2022-11-20T00:43:42;3.50;99.90
49465;DHT22;35358;49.342;8.802;2022-11-20T00:46:13;3.50;99.90
49465;DHT22;35358;49.342;8.802;2022-11-20T00:48:39;3.50;99.90
49465;DHT22;35358;49.342;8.802;2022-11-20T00:51:07;3.50;99.90
49465;DHT22;35358;49.342;8.802;2022-11-20T00:53:33;3.40;99.90
49465;DHT22;35358;49.342;8.802;2022-11-20T00:56:04;3.40;99.90
49465;DHT22;35358;49.342;8.802;2022-11-20T00:58:36;3.50;99.90
49465;DHT22;35358;49.342;8.802;2022-11-20T01:03:40;3.50;99.90
49465;DHT22;35358;49.342;8.802;2022-11-20T01:06:21;3.50;99.90
49465;DHT22;35358;49.342;8.802;2022-11-20T01:08:48;3.70;99.90
49465;DHT22;35358;49.342;8.802;2022-11-20T01:11:22;3.90;99.90
49465;DHT22;35358;49.342;8.802;2022-11-20T01:13:53;3.90;99.90
49465;DHT22;35358;49.342;8.802;2022-11-20T01:16:22;3.80;99.90
49465;DHT22;35358;49.342;8.802;2022-11-20T01:18:50;3.80;99.90
49465;DHT22;35358;49.342;8.802;2022-11-20T01:21:19;3.70;99.90
49465;DHT22;35358;49.342;8.802;2022-11-20T01:23:45;3.70;99.90
49465;DHT22;35358;49.342;8.802;2022-11-20T01:26:14;3.70;99.90
49465;DHT22;35358;49.342;8.802;2022-11-20T01:28:42;3.60;99.90
49465;DHT22;35358;49.342;8.802;2022-11-20T01:31:23;3.50;99.90
49465;DHT22;35358;49.342;8.802;2022-11-20T01:33:51;3.60;99.90
49465;DHT22;35358;49.342;8.802;2022-11-20T01:36:23;3.60;99.90
49465;DHT22;35358;49.342;8.802;2022-11-20T01:38:56;3.60;99.90
49465;DHT22;35358;49.342;8.802;2022-11-20T01:41:23;3.60;99.90
49465;DHT22;35358;49.342;8.802;2022-11-20T01:44:13;3.60;99.90
49465;DHT22;35358;49.342;8.802;2022-11-20T01:46:47;3.70;99.90
49465;DHT22;35358;49.342;8.802;2022-11-20T01:49:34;3.70;99.90
49465;DHT22;35358;49.342;8.802;2022-11-20T01:52:11;3.70;99.90
49465;DHT22;35358;49.342;8.802;2022-11-20T01:55:04;3.70;99.90
49465;DHT22;35358;49.342;8.802;2022-11-20T01:57:34;3.70;99.90
49465;DHT22;35358;49.342;8.802;2022-11-20T02:00:12;3.70;99.90
49465;DHT22;35358;49.342;8.802;2022-11-20T02:02:40;3.70;99.90
49465;DHT22;35358;49.342;8.802;2022-11-20T02:05:36;3.70;99.90
49465;DHT22;35358;49.342;8.802;2022-11-20T02:08:04;3.70;99.90
49465;DHT22;35358;49.342;8.802;2022-11-20T02:10:31;3.80;99.90
49465;DHT22;35358;49.342;8.802;2022-11-20T02:12:57;3.70;99.90
49465;DHT22;35358;49.342;8.802;2022-11-20T02:15:46;3.60;99.90
49465;DHT22;35358;49.342;8.802;2022-11-20T02:18:14;3.60;99.90
49465;DHT22;35358;49.342;8.802;2022-11-20T02:20:46;3.50;99.90
49465;DHT22;35358;49.342;8.802;2022-11-20T02:23:21;3.50;99.90
49465;DHT22;35358;49.342;8.802;2022-11-20T02:25:50;3.70;99.90
49465;DHT22;35358;49.342;8.802;2022-11-20T02:28:18;3.70;99.90
49465;DHT22;35358;49.342;8.802;2022-11-20T02:30:43;3.60;99.90
49465;DHT22;35358;49.342;8.802;2022-11-20T02:33:09;3.50;99.90
49465;DHT22;35358;49.342;8.802;2022-11-20T02:35:42;3.60;99.90
49465;DHT22;35358;49.342;8.802;2022-11-20T02:38:11;3.90;99.90
49465;DHT22;35358;49.342;8.802;2022-11-20T02:40:37;4.00;99.90
49465;DHT22;35358;49.342;8.802;2022-11-20T02:43:04;3.90;99.90
49465;DHT22;35358;49.342;8.802;2022-11-20T02:45:33;3.80;99.90
49465;DHT22;35358;49.342;8.802;2022-11-20T02:47:58;3.80;99.90
49465;DHT22;35358;49.342;8.802;2022-11-20T02:50:25;3.80;99.90
49465;DHT22;35358;49.342;8.802;2022-11-20T02:52:51;3.80;99.90
49465;DHT22;35358;49.342;8.802;2022-11-20T02:55:17;3.70;99.90
49465;DHT22;35358;49.342;8.802;2022-11-20T02:57:44;3.80;99.90
49465;DHT22;35358;49.342;8.802;2022-11-20T03:00:13;3.80;99.90
49465;DHT22;35358;49.342;8.802;2022-11-20T03:02:38;3.70;99.90
49465;DHT22;35358;49.342;8.802;2022-11-20T03:05:04;3.70;99.90
49465;DHT22;35358;49.342;8.802;2022-11-20T03:07:32;3.60;99.90
49465;DHT22;35358;49.342;8.802;2022-11-20T03:09:57;3.60;99.90
49465;DHT22;35358;49.342;8.802;2022-11-20T03:12:23;3.60;99.90
49465;DHT22;35358;49.342;8.802;2022-11-20T03:14:50;3.60;99.90
49465;DHT22;35358;49.342;8.802;2022-11-20T03:17:23;3.80;99.90
49465;DHT22;35358;49.342;8.802;2022-11-20T03:19:50;3.70;99.90
49465;DHT22;35358;49.342;8.802;2022-11-20T03:22:18;3.60;99.90
49465;DHT22;35358;49.342;8.802;2022-11-20T03:24:46;3.50;99.90
49465;DHT22;35358;49.342;8.802;2022-11-20T03:27:12;3.50;99.90
49465;DHT22;35358;49.342;8.802;2022-11-20T03:29:37;3.50;99.90
49465;DHT22;35358;49.342;8.802;2022-11-20T03:32:03;3.50;99.90
49465;DHT22;35358;49.342;8.802;2022-11-20T03:34:29;3.70;99.90
49465;DHT22;35358;49.342;8.802;2022-11-20T03:36:54;3.80;99.90
49465;DHT22;35358;49.342;8.802;2022-11-20T03:39:20;3.80;99.90
49465;DHT22;35358;49.342;8.802;2022-11-20T03:41:45;4.00;99.90
49465;DHT22;35358;49.342;8.802;2022-11-20T03:44:11;4.00;99.90
49465;DHT22;35358;49.342;8.802;2022-11-20T03:46:39;3.80;99.90
49465;DHT22;35358;49.342;8.802;2022-11-20T03:49:05;3.80;99.90
49465;DHT22;35358;49.342;8.802;2022-11-20T03:51:33;4.00;99.90
49465;DHT22;35358;49.342;8.802;2022-11-20T03:54:02;4.00;99.90
49465;DHT22;35358;49.342;8.802;2022-11-20T03:56:33;4.80;99.90
49465;DHT22;35358;49.342;8.802;2022-11-20T03:59:01;4.20;99.90
49465;DHT22;35358;49.342;8.802;2022-11-20T04:01:33;4.30;99.90
49465;DHT22;35358;49.342;8.802;2022-11-20T04:04:02;4.30;99.90
49465;DHT22;35358;49.342;8.802;2022-11-20T04:06:38;3.90;99.90
49465;DHT22;35358;49.342;8.802;2022-11-20T04:09:08;3.90;99.90
49465;DHT22;35358;49.342;8.802;2022-11-20T04:11:39;3.80;99.90
49465;DHT22;35358;49.342;8.802;2022-11-20T04:14:13;3.90;99.90
49465;DHT22;35358;49.342;8.802;2022-11-20T04:16:39;3.90;99.90
49465;DHT22;35358;49.342;8.802;2022-11-20T04:19:06;3.90;99.90
49465;DHT22;35358;49.342;8.802;2022-11-20T04:21:34;4.00;99.90
49465;DHT22;35358;49.342;8.802;2022-11-20T04:24:04;4.00;99.90
49465;DHT22;35358;49.342;8.802;2022-11-20T04:26:33;4.10;99.90
49465;DHT22;35358;49.342;8.802;2022-11-20T04:28:59;4.20;99.90
49465;DHT22;35358;49.342;8.802;2022-11-20T04:31:28;4.20;99.90
49465;DHT22;35358;49.342;8.802;2022-11-20T04:33:54;4.30;99.90
49465;DHT22;35358;49.342;8.802;2022-11-20T04:36:25;4.40;99.90
49465;DHT22;35358;49.342;8.802;2022-11-20T04:38:55;4.60;99.90
49465;DHT22;35358;49.342;8.802;2022-11-20T04:41:22;4.70;99.90
49465;DHT22;35358;49.342;8.802;2022-11-20T04:43:49;4.80;99.90
49465;DHT22;35358;49.342;8.802;2022-11-20T04:46:17;4.90;99.90
49465;DHT22;35358;49.342;8.802;2022-11-20T04:48:42;4.90;99.90
49465;DHT22;35358;49.342;8.802;2022-11-20T04:51:11;5.10;99.90
49465;DHT22;35358;49.342;8.802;2022-11-20T04:53:36;5.30;99.90
49465;DHT22;35358;49.342;8.802;2022-11-20T04:56:04;5.20;99.90
49465;DHT22;35358;49.342;8.802;2022-11-20T04:58:34;5.10;99.90
49465;DHT22;35358;49.342;8.802;2022-11-20T05:01:07;5.20;99.90
49465;DHT22;35358;49.342;8.802;2022-11-20T05:03:36;5.20;99.90
49465;DHT22;35358;49.342;8.802;2022-11-20T05:06:05;5.10;99.90
49465;DHT22;35358;49.342;8.802;2022-11-20T05:08:32;5.20;99.90
49465;DHT22;35358;49.342;8.802;2022-11-20T05:11:07;5.20;99.90
49465;DHT22;35358;49.342;8.802;2022-11-20T05:13:33;5.20;99.90
49465;DHT22;35358;49.342;8.802;2022-11-20T05:16:03;5.20;99.90
49465;DHT22;35358;49.342;8.802;2022-11-20T05:18:29;5.30;99.90
49465;DHT22;35358;49.342;8.802;2022-11-20T05:20:57;5.40;99.90
49465;DHT22;35358;49.342;8.802;2022-11-20T05:23:26;5.50;99.90
49465;DHT22;35358;49.342;8.802;2022-11-20T05:25:55;5.60;99.90
49465;DHT22;35358;49.342;8.802;2022-11-20T05:28:22;5.70;99.90
49465;DHT22;35358;49.342;8.802;2022-11-20T05:30:48;5.80;99.90
49465;DHT22;35358;49.342;8.802;2022-11-20T05:33:13;5.80;99.90
49465;DHT22;35358;49.342;8.802;2022-11-20T05:35:39;5.90;99.90
49465;DHT22;35358;49.342;8.802;2022-11-20T05:38:04;5.90;99.90
49465;DHT22;35358;49.342;8.802;2022-11-20T05:40:30;5.90;99.90
49465;DHT22;35358;49.342;8.802;2022-11-20T05:42:58;5.90;99.90
49465;DHT22;35358;49.342;8.802;2022-11-20T05:45:27;5.90;99.90
49465;DHT22;35358;49.342;8.802;2022-11-20T05:47:52;5.90;99.90
49465;DHT22;35358;49.342;8.802;2022-11-20T05:50:21;5.90;99.90
49465;DHT22;35358;49.342;8.802;2022-11-20T05:52:46;5.90;99.90
49465;DHT22;35358;49.342;8.802;2022-11-20T05:55:14;5.90;99.90
49465;DHT22;35358;49.342;8.802;2022-11-20T05:57:42;5.90;99.90
49465;DHT22;35358;49.342;8.802;2022-11-20T06:00:08;5.90;99.90
49465;DHT22;35358;49.342;8.802;2022-11-20T06:02:37;6.00;99.90
49465;DHT22;35358;49.342;8.802;2022-11-20T06:05:02;5.90;99.90
49465;DHT22;35358;49.342;8.802;2022-11-20T06:07:28;6.00;99.90
49465;DHT22;35358;49.342;8.802;2022-11-20T06:09:53;6.00;99.90
49465;DHT22;35358;49.342;8.802;2022-11-20T06:12:21;6.00;99.90
49465;DHT22;35358;49.342;8.802;2022-11-20T06:14:47;6.00;99.90
49465;DHT22;35358;49.342;8.802;2022-11-20T06:17:13;6.00;99.90
49465;DHT22;35358;49.342;8.802;2022-11-20T06:19:38;6.10;99.90
49465;DHT22;35358;49.342;8.802;2022-11-20T06:22:04;6.10;99.90
49465;DHT22;35358;49.342;8.802;2022-11-20T06:24:29;6.10;99.90
49465;DHT22;35358;49.342;8.802;2022-11-20T06:26:55;6.10;99.90
49465;DHT22;35358;49.342;8.802;2022-11-20T06:29:23;6.10;99.90
49465;DHT22;35358;49.342;8.802;2022-11-20T06:31:48;6.10;99.90
49465;DHT22;35358;49.342;8.802;2022-11-20T06:34:14;6.10;99.90
49465;DHT22;35358;49.342;8.802;2022-11-20T06:36:39;6.10;99.90
49465;DHT22;35358;49.342;8.802;2022-11-20T06:39:05;6.10;99.90
49465;DHT22;35358;49.342;8.802;2022-11-20T06:41:33;6.10;99.90
49465;DHT22;35358;49.342;8.802;2022-11-20T06:44:01;6.10;99.90
49465;DHT22;35358;49.342;8.802;2022-11-20T06:46:28;6.10;99.90
49465;DHT22;35358;49.342;8.802;2022-11-20T06:48:54;6.00;99.90
49465;DHT22;35358;49.342;8.802;2022-11-20T06:51:20;6.10;99.90
49465;DHT22;35358;49.342;8.802;2022-11-20T06:53:46;6.10;99.90
49465;DHT22;35358;49.342;8.802;2022-11-20T06:56:12;6.10;99.90
49465;DHT22;35358;49.342;8.802;2022-11-20T06:58:38;6.10;99.90
49465;DHT22;35358;49.342;8.802;2022-11-20T07:01:06;6.20;99.90
49465;DHT22;35358;49.342;8.802;2022-11-20T07:03:32;6.20;99.90
49465;DHT22;35358;49.342;8.802;2022-11-20T07:05:59;6.20;99.90
49465;DHT22;35358;49.342;8.802;2022-11-20T07:08:25;6.20;99.90
49465;DHT22;35358;49.342;8.802;2022-11-20T07:10:51;6.20;99.90
49465;DHT22;35358;49.342;8.802;2022-11-20T07:13:18;6.40;99.90
49465;DHT22;35358;49.342;8.802;2022-11-20T07:15:44;6.40;99.90
49465;DHT22;35358;49.342;8.802;2022-11-20T07:18:10;6.50;99.90
49465;DHT22;35358;49.342;8.802;2022-11-20T07:20:37;6.50;99.90
49465;DHT22;35358;49.342;8.802;2022-11-20T07:23:03;6.50;99.90
49465;DHT22;35358;49.342;8.802;2022-11-20T07:25:31;6.40;99.90
49465;DHT22;35358;49.342;8.802;2022-11-20T07:27:58;6.50;99.90
49465;DHT22;35358;49.342;8.802;2022-11-20T07:30:24;6.40;99.90
49465;DHT22;35358;49.342;8.802;2022-11-20T07:32:54;6.50;99.90
49465;DHT22;35358;49.342;8.802;2022-11-20T07:35:22;6.50;99.90
49465;DHT22;35358;49.342;8.802;2022-11-20T07:37:50;6.50;99.90
49465;DHT22;35358;49.342;8.802;2022-11-20T07:40:17;6.50;99.90
49465;DHT22;35358;49.342;8.802;2022-11-20T07:42:52;6.50;99.90
49465;DHT22;35358;49.342;8.802;2022-11-20T07:45:19;6.50;99.90
49465;DHT22;35358;49.342;8.802;2022-11-20T07:47:45;6.50;99.90
49465;DHT22;35358;49.342;8.802;2022-11-20T07:50:14;6.60;99.90
49465;DHT22;35358;49.342;8.802;2022-11-20T07:52:40;6.60;99.90
49465;DHT22;35358;49.342;8.802;2022-11-20T07:55:09;6.60;99.90
49465;DHT22;35358;49.342;8.802;2022-11-20T07:57:35;6.60;99.90
49465;DHT22;35358;49.342;8.802;2022-11-20T08:00:00;6.70;99.90
49465;DHT22;35358;49.342;8.802;2022-11-20T08:02:26;6.70;99.90
49465;DHT22;35358;49.342;8.802;2022-11-20T08:04:51;6.70;99.90
49465;DHT22;35358;49.342;8.802;2022-11-20T08:07:17;6.70;99.90
49465;DHT22;35358;49.342;8.802;2022-11-20T08:09:43;6.70;99.90
49465;DHT22;35358;49.342;8.802;2022-11-20T08:12:10;7.70;99.90
49465;DHT22;35358;49.342;8.802;2022-11-20T08:15:00;8.70;99.90
49465;DHT22;35358;49.342;8.802;2022-11-20T08:17:31;9.00;99.90
49465;DHT22;35358;49.342;8.802;2022-11-20T08:19:59;9.10;99.90
49465;DHT22;35358;49.342;8.802;2022-11-20T08:22:24;9.10;99.90
49465;DHT22;35358;49.342;8.802;2022-11-20T08:24:54;9.00;99.90
49465;DHT22;35358;49.342;8.802;2022-11-20T08:27:22;9.10;99.90
49465;DHT22;35358;49.342;8.802;2022-11-20T08:29:48;9.20;99.90
49465;DHT22;35358;49.342;8.802;2022-11-20T08:32:14;9.30;99.90
49465;DHT22;35358;49.342;8.802;2022-11-20T08:34:39;8.60;99.90
49465;DHT22;35358;49.342;8.802;2022-11-20T08:37:07;8.70;99.90
49465;DHT22;35358;49.342;8.802;2022-11-20T08:39:32;8.80;99.90
49465;DHT22;35358;49.342;8.802;2022-11-20T08:41:58;9.40;99.90
49465;DHT22;35358;49.342;8.802;2022-11-20T08:44:26;9.40;99.90
49465;DHT22;35358;49.342;8.802;2022-11-20T08:46:54;9.30;99.90
49465;DHT22;35358;49.342;8.802;2022-11-20T08:49:19;9.70;99.90
49465;DHT22;35358;49.342;8.802;2022-11-20T08:51:48;9.50;99.90
49465;DHT22;35358;49.342;8.802;2022-11-20T08:54:19;9.20;99.90
49465;DHT22;35358;49.342;8.802;2022-11-20T08:56:47;9.30;99.90
49465;DHT22;35358;49.342;8.802;2022-11-20T08:59:15;9.30;99.90
49465;DHT22;35358;49.342;8.802;2022-11-20T09:01:41;9.40;99.90
49465;DHT22;35358;49.342;8.802;2022-11-20T09:04:06;8.90;99.90
49465;DHT22;35358;49.342;8.802;2022-11-20T09:06:32;9.00;99.90
49465;DHT22;35358;49.342;8.802;2022-11-20T09:08:58;8.90;99.90
49465;DHT22;35358;49.342;8.802;2022-11-20T09:11:23;8.90;99.90
49465;DHT22;35358;49.342;8.802;2022-11-20T09:13:49;9.20;99.90
49465;DHT22;35358;49.342;8.802;2022-11-20T09:16:17;8.70;99.90
49465;DHT22;35358;49.342;8.802;2022-11-20T09:18:43;8.80;99.90
49465;DHT22;35358;49.342;8.802;2022-11-20T09:21:12;8.60;99.90
49465;DHT22;35358;49.342;8.802;2022-11-20T09:23:39;8.70;99.90
49465;DHT22;35358;49.342;8.802;2022-11-20T09:26:07;8.30;99.90
49465;DHT22;35358;49.342;8.802;2022-11-20T09:28:33;8.80;99.90
49465;DHT22;35358;49.342;8.802;2022-11-20T09:30:59;9.00;99.90
49465;DHT22;35358;49.342;8.802;2022-11-20T09:33:27;9.20;99.90
49465;DHT22;35358;49.342;8.802;2022-11-20T09:35:53;9.10;99.90
49465;DHT22;35358;49.342;8.802;2022-11-20T09:38:21;9.30;99.90
49465;DHT22;35358;49.342;8.802;2022-11-20T09:41:06;9.30;99.90
49465;DHT22;35358;49.342;8.802;2022-11-20T09:51:50;9.40;99.90
49465;DHT22;35358;49.342;8.802;2022-11-20T09:54:25;9.10;99.90
49465;DHT22;35358;49.342;8.802;2022-11-20T09:57:03;9.30;99.90
49465;DHT22;35358;49.342;8.802;2022-11-20T09:59:42;9.40;99.90
49465;DHT22;35358;49.342;8.802;2022-11-20T10:05:15;8.70;99.90
49465;DHT22;35358;49.342;8.802;2022-11-20T10:07:48;8.20;99.90
49465;DHT22;35358;49.342;8.802;2022-11-20T10:10:41;7.90;99.90
49465;DHT22;35358;49.342;8.802;2022-11-20T10:16:23;7.80;99.90
49465;DHT22;35358;49.342;8.802;2022-11-20T10:29:19;7.80;99.90
49465;DHT22;35358;49.342;8.802;2022-11-20T10:31:51;7.80;99.90
49465;DHT22;35358;49.342;8.802;2022-11-20T10:34:27;7.80;99.90
49465;DHT22;35358;49.342;8.802;2022-11-20T10:37:24;7.90;99.90
49465;DHT22;35358;49.342;8.802;2022-11-20T10:39:57;7.90;99.90
49465;DHT22;35358;49.342;8.802;2022-11-20T10:42:46;7.90;99.90
49465;DHT22;35358;49.342;8.802;2022-11-20T10:47:56;8.00;99.90
49465;DHT22;35358;49.342;8.802;2022-11-20T10:50:32;7.90;99.90
49465;DHT22;35358;49.342;8.802;2022-11-20T10:53:13;7.90;99.90
49465;DHT22;35358;49.342;8.802;2022-11-20T10:55:56;8.00;99.90
49465;DHT22;35358;49.342;8.802;2022-11-20T10:58:49;8.00;99.90
49465;DHT22;35358;49.342;8.802;2022-11-20T11:01:21;8.10;99.90
49465;DHT22;35358;49.342;8.802;2022-11-20T11:03:49;8.10;99.90
49465;DHT22;35358;49.342;8.802;2022-11-20T11:06:29;8.10;99.90
49465;DHT22;35358;49.342;8.802;2022-11-20T11:09:00;8.20;99.90
49465;DHT22;35358;49.342;8.802;2022-11-20T11:11:32;8.30;99.90
49465;DHT22;35358;49.342;8.802;2022-11-20T11:14:12;8.20;99.90
49465;DHT22;35358;49.342;8.802;2022-11-20T11:17:01;8.20;99.90
49465;DHT22;35358;49.342;8.802;2022-11-20T11:19:26;8.10;99.90
49465;DHT22;35358;49.342;8.802;2022-11-20T11:21:56;8.10;99.90
49465;DHT22;35358;49.342;8.802;2022-11-20T11:24:25;8.10;99.90
49465;DHT22;35358;49.342;8.802;2022-11-20T11:26:57;8.10;99.90
49465;DHT22;35358;49.342;8.802;2022-11-20T11:29:22;8.30;99.90
49465;DHT22;35358;49.342;8.802;2022-11-20T11:31:49;8.40;99.90
49465;DHT22;35358;49.342;8.802;2022-11-20T11:34:16;8.50;99.90
49465;DHT22;35358;49.342;8.802;2022-11-20T11:36:55;8.70;99.90
49465;DHT22;35358;49.342;8.802;2022-11-20T11:39:22;8.70;99.90
49465;DHT22;35358;49.342;8.802;2022-11-20T11:41:51;8.60;99.90
49465;DHT22;35358;49.342;8.802;2022-11-20T11:44:47;8.60;99.90
49465;DHT22;35358;49.342;8.802;2022-11-20T11:50:24;8.50;99.90
49465;DHT22;35358;49.342;8.802;2022-11-20T11:55:42;8.50;99.90
49465;DHT22;35358;49.342;8.802;2022-11-20T11:58:13;8.60;99.90
49465;DHT22;35358;49.342;8.802;2022-11-20T12:00:56;8.60;99.90
49465;DHT22;35358;49.342;8.802;2022-11-20T12:03:37;8.70;99.90
49465;DHT22;35358;49.342;8.802;2022-11-20T12:06:14;8.70;99.90
49465;DHT22;35358;49.342;8.802;2022-11-20T12:09:01;8.70;99.90
49465;DHT22;35358;49.342;8.802;2022-11-20T12:11:52;8.70;99.90
49465;DHT22;35358;49.342;8.802;2022-11-20T12:14:34;8.80;99.90
49465;DHT22;35358;49.342;8.802;2022-11-20T12:17:01;8.90;99.90
49465;DHT22;35358;49.342;8.802;2022-11-20T12:19:29;8.90;99.90
49465;DHT22;35358;49.342;8.802;2022-11-20T12:22:32;9.00;99.90
49465;DHT22;35358;49.342;8.802;2022-11-20T12:30:28;9.20;99.90
49465;DHT22;35358;49.342;8.802;2022-11-20T12:36:04;9.40;99.90
49465;DHT22;35358;49.342;8.802;2022-11-20T12:47:51;9.30;99.90
49465;DHT22;35358;49.342;8.802;2022-11-20T12:55:33;9.20;99.90
49465;DHT22;35358;49.342;8.802;2022-11-20T13:03:42;9.20;99.90
49465;DHT22;35358;49.342;8.802;2022-11-20T13:06:19;9.10;99.90
49465;DHT22;35358;49.342;8.802;2022-11-20T13:08:53;9.10;99.90
49465;DHT22;35358;49.342;8.802;2022-11-20T13:11:21;9.10;99.90
49465;DHT22;35358;49.342;8.802;2022-11-20T13:19:04;9.10;99.90
49465;DHT22;35358;49.342;8.802;2022-11-20T13:21:45;9.00;99.90
49465;DHT22;35358;49.342;8.802;2022-11-20T13:29:34;9.10;99.90
49465;DHT22;35358;49.342;8.802;2022-11-20T13:32:13;9.10;99.90
49465;DHT22;35358;49.342;8.802;2022-11-20T13:34:39;9.10;99.90
49465;DHT22;35358;49.342;8.802;2022-11-20T13:42:39;9.30;99.90
49465;DHT22;35358;49.342;8.802;2022-11-20T13:45:21;9.40;99.90
49465;DHT22;35358;49.342;8.802;2022-11-20T13:47:52;9.50;99.90
49465;DHT22;35358;49.342;8.802;2022-11-20T13:50:19;9.50;99.90
49465;DHT22;35358;49.342;8.802;2022-11-20T13:52:54;9.40;99.90
49465;DHT22;35358;49.342;8.802;2022-11-20T13:55:41;9.30;99.90
49465;DHT22;35358;49.342;8.802;2022-11-20T14:00:55;9.30;99.90
49465;DHT22;35358;49.342;8.802;2022-11-20T14:03:23;9.30;99.90
49465;DHT22;35358;49.342;8.802;2022-11-20T14:05:57;9.30;99.90
49465;DHT22;35358;49.342;8.802;2022-11-20T14:08:39;9.40;99.90
49465;DHT22;35358;49.342;8.802;2022-11-20T14:11:23;9.50;99.90
49465;DHT22;35358;49.342;8.802;2022-11-20T14:14:02;9.60;99.90
49465;DHT22;35358;49.342;8.802;2022-11-20T14:16:31;9.70;99.90
49465;DHT22;35358;49.342;8.802;2022-11-20T14:18:58;9.70;99.90
49465;DHT22;35358;49.342;8.802;2022-11-20T14:21:41;9.70;99.90
49465;DHT22;35358;49.342;8.802;2022-11-20T14:24:11;9.70;99.90
49465;DHT22;35358;49.342;8.802;2022-11-20T14:26:41;9.60;99.90
49465;DHT22;35358;49.342;8.802;2022-11-20T14:29:14;9.60;99.90
49465;DHT22;35358;49.342;8.802;2022-11-20T14:31:44;9.60;99.90
49465;DHT22;35358;49.342;8.802;2022-11-20T14:34:19;9.40;99.90
49465;DHT22;35358;49.342;8.802;2022-11-20T14:36:59;9.30;99.90
49465;DHT22;35358;49.342;8.802;2022-11-20T14:39:36;9.30;99.90
49465;DHT22;35358;49.342;8.802;2022-11-20T14:42:17;9.20;99.90
49465;DHT22;35358;49.342;8.802;2022-11-20T14:44:44;9.10;99.90
49465;DHT22;35358;49.342;8.802;2022-11-20T14:47:12;9.00;99.90
49465;DHT22;35358;49.342;8.802;2022-11-20T14:49:38;8.90;99.90
49465;DHT22;35358;49.342;8.802;2022-11-20T14:52:19;8.80;99.90
49465;DHT22;35358;49.342;8.802;2022-11-20T14:54:52;8.70;99.90
49465;DHT22;35358;49.342;8.802;2022-11-20T14:57:29;8.60;99.90
49465;DHT22;35358;49.342;8.802;2022-11-20T15:00:19;8.60;99.90
49465;DHT22;35358;49.342;8.802;2022-11-20T15:02:49;8.50;99.90
49465;DHT22;35358;49.342;8.802;2022-11-20T15:05:20;8.50;99.90
49465;DHT22;35358;49.342;8.802;2022-11-20T15:07:49;8.50;99.90
49465;DHT22;35358;49.342;8.802;2022-11-20T15:12:53;8.40;99.90
49465;DHT22;35358;49.342;8.802;2022-11-20T15:15:47;8.30;99.90
49465;DHT22;35358;49.342;8.802;2022-11-20T15:18:17;8.30;99.90
49465;DHT22;35358;49.342;8.802;2022-11-20T15:20:44;8.20;99.90
49465;DHT22;35358;49.342;8.802;2022-11-20T15:23:18;8.10;99.90
49465;DHT22;35358;49.342;8.802;2022-11-20T15:25:47;8.10;99.90
49465;DHT22;35358;49.342;8.802;2022-11-20T15:28:21;8.20;99.90
49465;DHT22;35358;49.342;8.802;2022-11-20T15:30:49;8.10;99.90
49465;DHT22;35358;49.342;8.802;2022-11-20T15:33:16;8.00;99.90
49465;DHT22;35358;49.342;8.802;2022-11-20T15:35:42;7.90;99.90
49465;DHT22;35358;49.342;8.802;2022-11-20T15:38:08;7.90;99.90
49465;DHT22;35358;49.342;8.802;2022-11-20T15:40:36;7.80;99.90
49465;DHT22;35358;49.342;8.802;2022-11-20T15:43:03;7.90;99.90
49465;DHT22;35358;49.342;8.802;2022-11-20T15:45:50;7.90;99.90
49465;DHT22;35358;49.342;8.802;2022-11-20T15:48:21;7.80;99.90
49465;DHT22;35358;49.342;8.802;2022-11-20T15:51:02;7.80;99.90
49465;DHT22;35358;49.342;8.802;2022-11-20T15:53:29;7.70;99.90
49465;DHT22;35358;49.342;8.802;2022-11-20T15:55:55;7.80;99.90
49465;DHT22;35358;49.342;8.802;2022-11-20T15:58:20;7.70;99.90
49465;DHT22;35358;49.342;8.802;2022-11-20T16:00:48;7.70;99.90
49465;DHT22;35358;49.342;8.802;2022-11-20T16:03:15;7.70;99.90
49465;DHT22;35358;49.342;8.802;2022-11-20T16:05:42;7.70;99.90
49465;DHT22;35358;49.342;8.802;2022-11-20T16:08:11;7.80;99.90
49465;DHT22;35358;49.342;8.802;2022-11-20T16:10:38;7.80;99.90
49465;DHT22;35358;49.342;8.802;2022-11-20T16:13:03;7.80;99.90
49465;DHT22;35358;49.342;8.802;2022-11-20T16:15:53;7.70;99.90
49465;DHT22;35358;49.342;8.802;2022-11-20T16:18:22;7.70;99.90
49465;DHT22;35358;49.342;8.802;2022-11-20T16:20:52;7.70;99.90
49465;DHT22;35358;49.342;8.802;2022-11-20T16:23:19;7.80;99.90
49465;DHT22;35358;49.342;8.802;2022-11-20T16:25:52;7.70;99.90
49465;DHT22;35358;49.342;8.802;2022-11-20T16:28:20;7.70;99.90
49465;DHT22;35358;49.342;8.802;2022-11-20T16:30:48;7.70;99.90
49465;DHT22;35358;49.342;8.802;2022-11-20T16:33:15;7.70;99.90
49465;DHT22;35358;49.342;8.802;2022-11-20T16:35:44;7.70;99.90
49465;DHT22;35358;49.342;8.802;2022-11-20T16:38:12;7.80;99.90
49465;DHT22;35358;49.342;8.802;2022-11-20T16:40:38;7.80;99.90
49465;DHT22;35358;49.342;8.802;2022-11-20T16:43:08;7.80;99.90
49465;DHT22;35358;49.342;8.802;2022-11-20T16:45:37;7.80;99.90
49465;DHT22;35358;49.342;8.802;2022-11-20T16:48:05;7.70;99.90
49465;DHT22;35358;49.342;8.802;2022-11-20T16:50:30;7.70;99.90
49465;DHT22;35358;49.342;8.802;2022-11-20T16:52:56;7.60;99.90
49465;DHT22;35358;49.342;8.802;2022-11-20T16:55:24;7.60;99.90
49465;DHT22;35358;49.342;8.802;2022-11-20T16:57:54;7.80;99.90
49465;DHT22;35358;49.342;8.802;2022-11-20T17:00:22;7.80;99.90
49465;DHT22;35358;49.342;8.802;2022-11-20T17:02:50;7.70;99.90
49465;DHT22;35358;49.342;8.802;2022-11-20T17:05:16;7.70;99.90
49465;DHT22;35358;49.342;8.802;2022-11-20T17:07:43;7.70;99.90
49465;DHT22;35358;49.342;8.802;2022-11-20T17:10:11;7.80;99.90
49465;DHT22;35358;49.342;8.802;2022-11-20T17:12:37;7.80;99.90
49465;DHT22;35358;49.342;8.802;2022-11-20T17:15:05;7.80;99.90
49465;DHT22;35358;49.342;8.802;2022-11-20T17:17:31;7.80;99.90
49465;DHT22;35358;49.342;8.802;2022-11-20T17:19:58;7.80;99.90
49465;DHT22;35358;49.342;8.802;2022-11-20T17:22:24;7.80;99.90
49465;DHT22;35358;49.342;8.802;2022-11-20T17:24:49;7.80;99.90
49465;DHT22;35358;49.342;8.802;2022-11-20T17:27:15;7.70;99.90
49465;DHT22;35358;49.342;8.802;2022-11-20T17:29:41;7.70;99.90